sensor_id;sensor_type;location;lat;lon;timestamp;pressure;altitude;pressure_sealevel;temperature;humidity
47130;BME280;64709;48.096;11.524;2022-11-15T00:01:07;61796.13;;;-143.31;100.00
47130;BME280;64709;48.096;11.524;2022-11-15T00:03:32;61796.13;;;-143.31;100.00
47130;BME280;64709;48.096;11.524;2022-11-15T00:06:02;61796.13;;;-143.31;100.00
47130;BME280;64709;48.096;11.524;2022-11-15T00:08:32;61796.13;;;-143.31;100.00
47130;BME280;64709;48.096;11.524;2022-11-15T00:10:59;61796.13;;;-143.31;100.00
47130;BME280;64709;48.096;11.524;2022-11-15T00:13:25;61796.13;;;-143.31;100.00
47130;BME280;64709;48.096;11.524;2022-11-15T00:15:51;61796.13;;;-143.31;100.00
47130;BME280;64709;48.096;11.524;2022-11-15T00:18:17;61796.13;;;-143.31;100.00
47130;BME280;64709;48.096;11.524;2022-11-15T00:20:43;61796.13;;;-143.31;100.00
47130;BME280;64709;48.096;11.524;2022-11-15T00:23:08;61796.13;;;-143.31;100.00
47130;BME280;64709;48.096;11.524;2022-11-15T00:25:34;61796.13;;;-143.31;100.00
47130;BME280;64709;48.096;11.524;2022-11-15T00:28:00;61796.13;;;-143.31;100.00
47130;BME280;64709;48.096;11.524;2022-11-15T00:30:26;61796.13;;;-143.31;100.00
47130;BME280;64709;48.096;11.524;2022-11-15T00:32:52;61796.13;;;-143.31;100.00
47130;BME280;64709;48.096;11.524;2022-11-15T00:35:17;61796.13;;;-143.31;100.00
47130;BME280;64709;48.096;11.524;2022-11-15T00:37:43;61796.13;;;-143.31;100.00
47130;BME280;64709;48.096;11.524;2022-11-15T00:40:10;61796.13;;;-143.31;100.00
47130;BME280;64709;48.096;11.524;2022-11-15T00:42:38;61796.13;;;-143.31;100.00
47130;BME280;64709;48.096;11.524;2022-11-15T00:45:03;61796.13;;;-143.31;100.00
47130;BME280;64709;48.096;11.524;2022-11-15T00:47:28;61796.13;;;-143.31;100.00
47130;BME280;64709;48.096;11.524;2022-11-15T00:49:54;61796.13;;;-143.31;100.00
47130;BME280;64709;48.096;11.524;2022-11-15T00:52:19;61796.13;;;-143.31;100.00
47130;BME280;64709;48.096;11.524;2022-11-15T00:54:44;61796.13;;;-143.31;100.00
47130;BME280;64709;48.096;11.524;2022-11-15T00:57:10;61796.13;;;-143.31;100.00
47130;BME280;64709;48.096;11.524;2022-11-15T00:59:35;61796.13;;;-143.31;100.00
47130;BME280;64709;48.096;11.524;2022-11-15T01:02:00;61796.13;;;-143.31;100.00
47130;BME280;64709;48.096;11.524;2022-11-15T01:04:26;61796.13;;;-143.31;100.00
47130;BME280;64709;48.096;11.524;2022-11-15T01:06:51;61796.13;;;-143.31;100.00
47130;BME280;64709;48.096;11.524;2022-11-15T01:09:17;61796.13;;;-143.31;100.00
47130;BME280;64709;48.096;11.524;2022-11-15T01:11:42;61796.13;;;-143.31;100.00
47130;BME280;64709;48.096;11.524;2022-11-15T01:14:07;61796.13;;;-143.31;100.00
47130;BME280;64709;48.096;11.524;2022-11-15T01:16:33;61796.13;;;-143.31;100.00
47130;BME280;64709;48.096;11.524;2022-11-15T01:18:59;61796.13;;;-143.31;100.00
47130;BME280;64709;48.096;11.524;2022-11-15T01:21:24;61796.13;;;-143.31;100.00
47130;BME280;64709;48.096;11.524;2022-11-15T01:23:55;61796.13;;;-143.31;100.00
47130;BME280;64709;48.096;11.524;2022-11-15T01:26:22;61796.13;;;-143.31;100.00
47130;BME280;64709;48.096;11.524;2022-11-15T01:28:48;61796.13;;;-143.31;100.00
47130;BME280;64709;48.096;11.524;2022-11-15T01:31:16;61796.13;;;-143.31;100.00
47130;BME280;64709;48.096;11.524;2022-11-15T01:33:42;61796.13;;;-143.31;100.00
47130;BME280;64709;48.096;11.524;2022-11-15T01:36:11;61796.13;;;-143.31;100.00
47130;BME280;64709;48.096;11.524;2022-11-15T01:38:37;61796.13;;;-143.31;100.00
47130;BME280;64709;48.096;11.524;2022-11-15T01:41:03;61796.13;;;-143.31;100.00
47130;BME280;64709;48.096;11.524;2022-11-15T01:43:33;61796.13;;;-143.31;100.00
47130;BME280;64709;48.096;11.524;2022-11-15T01:48:54;61796.13;;;-143.31;100.00
47130;BME280;64709;48.096;11.524;2022-11-15T01:51:24;61796.13;;;-143.31;100.00
47130;BME280;64709;48.096;11.524;2022-11-15T01:53:54;61796.13;;;-143.31;100.00
47130;BME280;64709;48.096;11.524;2022-11-15T01:56:24;61796.13;;;-143.31;100.00
47130;BME280;64709;48.096;11.524;2022-11-15T01:58:50;61796.13;;;-143.31;100.00
47130;BME280;64709;48.096;11.524;2022-11-15T02:01:16;61796.13;;;-143.31;100.00
47130;BME280;64709;48.096;11.524;2022-11-15T02:03:47;61796.13;;;-143.31;100.00
47130;BME280;64709;48.096;11.524;2022-11-15T02:06:14;61796.13;;;-143.31;100.00
47130;BME280;64709;48.096;11.524;2022-11-15T02:08:40;61796.13;;;-143.31;100.00
47130;BME280;64709;48.096;11.524;2022-11-15T02:11:09;61796.13;;;-143.31;100.00
47130;BME280;64709;48.096;11.524;2022-11-15T02:13:35;61796.13;;;-143.31;100.00
47130;BME280;64709;48.096;11.524;2022-11-15T02:16:16;61796.13;;;-143.31;100.00
47130;BME280;64709;48.096;11.524;2022-11-15T02:21:54;61796.13;;;-143.31;100.00
47130;BME280;64709;48.096;11.524;2022-11-15T02:32:36;61796.13;;;-143.31;100.00
47130;BME280;64709;48.096;11.524;2022-11-15T02:38:03;61796.13;;;-143.31;100.00
47130;BME280;64709;48.096;11.524;2022-11-15T02:43:24;61796.13;;;-143.31;100.00
47130;BME280;64709;48.096;11.524;2022-11-15T02:46:19;61796.13;;;-143.31;100.00
47130;BME280;64709;48.096;11.524;2022-11-15T02:48:46;61796.13;;;-143.31;100.00
47130;BME280;64709;48.096;11.524;2022-11-15T02:51:13;61796.13;;;-143.31;100.00
47130;BME280;64709;48.096;11.524;2022-11-15T02:53:38;61796.13;;;-143.31;100.00
47130;BME280;64709;48.096;11.524;2022-11-15T02:56:04;61796.13;;;-143.31;100.00
47130;BME280;64709;48.096;11.524;2022-11-15T03:06:35;61796.13;;;-143.31;100.00
47130;BME280;64709;48.096;11.524;2022-11-15T03:09:07;61796.13;;;-143.31;100.00
47130;BME280;64709;48.096;11.524;2022-11-15T03:11:41;61796.13;;;-143.31;100.00
47130;BME280;64709;48.096;11.524;2022-11-15T03:14:22;61796.13;;;-143.31;100.00
47130;BME280;64709;48.096;11.524;2022-11-15T03:19:45;61796.13;;;-143.31;100.00
47130;BME280;64709;48.096;11.524;2022-11-15T03:22:15;61796.13;;;-143.31;100.00
47130;BME280;64709;48.096;11.524;2022-11-15T03:24:43;61796.13;;;-143.31;100.00
47130;BME280;64709;48.096;11.524;2022-11-15T03:27:12;61796.13;;;-143.31;100.00
47130;BME280;64709;48.096;11.524;2022-11-15T03:29:45;61796.13;;;-143.31;100.00
47130;BME280;64709;48.096;11.524;2022-11-15T03:32:18;61796.13;;;-143.31;100.00
47130;BME280;64709;48.096;11.524;2022-11-15T03:34:52;61796.13;;;-143.31;100.00
47130;BME280;64709;48.096;11.524;2022-11-15T03:37:22;61796.13;;;-143.31;100.00
47130;BME280;64709;48.096;11.524;2022-11-15T03:39:49;61796.13;;;-143.31;100.00
47130;BME280;64709;48.096;11.524;2022-11-15T03:43:04;61796.13;;;-143.31;100.00
47130;BME280;64709;48.096;11.524;2022-11-15T03:45:23;61796.13;;;-143.31;100.00
47130;BME280;64709;48.096;11.524;2022-11-15T03:48:14;61796.13;;;-143.31;100.00
47130;BME280;64709;48.096;11.524;2022-11-15T03:50:42;61796.13;;;-143.31;100.00
47130;BME280;64709;48.096;11.524;2022-11-15T03:53:08;61796.13;;;-143.31;100.00
47130;BME280;64709;48.096;11.524;2022-11-15T03:55:34;61796.13;;;-143.31;100.00
47130;BME280;64709;48.096;11.524;2022-11-15T03:58:00;61796.13;;;-143.31;100.00
47130;BME280;64709;48.096;11.524;2022-11-15T04:00:26;61796.13;;;-143.31;100.00
47130;BME280;64709;48.096;11.524;2022-11-15T04:02:52;61796.13;;;-143.31;100.00
47130;BME280;64709;48.096;11.524;2022-11-15T04:05:17;61796.13;;;-143.31;100.00
47130;BME280;64709;48.096;11.524;2022-11-15T04:07:43;61796.13;;;-143.31;100.00
47130;BME280;64709;48.096;11.524;2022-11-15T04:10:10;61796.13;;;-143.31;100.00
47130;BME280;64709;48.096;11.524;2022-11-15T04:12:39;61796.13;;;-143.31;100.00
47130;BME280;64709;48.096;11.524;2022-11-15T04:15:11;61796.13;;;-143.31;100.00
47130;BME280;64709;48.096;11.524;2022-11-15T04:17:41;61796.13;;;-143.31;100.00
47130;BME280;64709;48.096;11.524;2022-11-15T04:20:16;61796.13;;;-143.31;100.00
47130;BME280;64709;48.096;11.524;2022-11-15T04:23:02;61796.13;;;-143.31;100.00
47130;BME280;64709;48.096;11.524;2022-11-15T04:25:49;61796.13;;;-143.31;100.00
47130;BME280;64709;48.096;11.524;2022-11-15T04:28:16;61796.13;;;-143.31;100.00
47130;BME280;64709;48.096;11.524;2022-11-15T04:30:41;61796.13;;;-143.31;100.00
47130;BME280;64709;48.096;11.524;2022-11-15T04:33:07;61796.13;;;-143.31;100.00
47130;BME280;64709;48.096;11.524;2022-11-15T04:35:32;61796.13;;;-143.31;100.00
47130;BME280;64709;48.096;11.524;2022-11-15T04:37:58;61796.13;;;-143.31;100.00
47130;BME280;64709;48.096;11.524;2022-11-15T04:40:23;61796.13;;;-143.31;100.00
47130;BME280;64709;48.096;11.524;2022-11-15T04:42:49;61796.13;;;-143.31;100.00
47130;BME280;64709;48.096;11.524;2022-11-15T04:45:14;61796.13;;;-143.31;100.00
47130;BME280;64709;48.096;11.524;2022-11-15T04:47:42;61796.13;;;-143.31;100.00
47130;BME280;64709;48.096;11.524;2022-11-15T04:50:08;61796.13;;;-143.31;100.00
47130;BME280;64709;48.096;11.524;2022-11-15T04:52:33;61796.13;;;-143.31;100.00
47130;BME280;64709;48.096;11.524;2022-11-15T04:54:59;61796.13;;;-143.31;100.00
47130;BME280;64709;48.096;11.524;2022-11-15T04:57:24;61796.13;;;-143.31;100.00
47130;BME280;64709;48.096;11.524;2022-11-15T04:59:49;61796.13;;;-143.31;100.00
47130;BME280;64709;48.096;11.524;2022-11-15T05:02:14;61796.13;;;-143.31;100.00
47130;BME280;64709;48.096;11.524;2022-11-15T05:04:40;61796.13;;;-143.31;100.00
47130;BME280;64709;48.096;11.524;2022-11-15T05:07:05;61796.13;;;-143.31;100.00
47130;BME280;64709;48.096;11.524;2022-11-15T05:09:30;61796.13;;;-143.31;100.00
47130;BME280;64709;48.096;11.524;2022-11-15T05:11:56;61796.13;;;-143.31;100.00
47130;BME280;64709;48.096;11.524;2022-11-15T05:14:21;61796.13;;;-143.31;100.00
47130;BME280;64709;48.096;11.524;2022-11-15T05:16:46;61796.13;;;-143.31;100.00
47130;BME280;64709;48.096;11.524;2022-11-15T05:19:12;61796.13;;;-143.31;100.00
47130;BME280;64709;48.096;11.524;2022-11-15T05:21:37;61796.13;;;-143.31;100.00
47130;BME280;64709;48.096;11.524;2022-11-15T05:24:03;61796.13;;;-143.31;100.00
47130;BME280;64709;48.096;11.524;2022-11-15T05:26:28;61796.13;;;-143.31;100.00
47130;BME280;64709;48.096;11.524;2022-11-15T05:28:56;61796.13;;;-143.31;100.00
47130;BME280;64709;48.096;11.524;2022-11-15T05:31:22;61796.13;;;-143.31;100.00
47130;BME280;64709;48.096;11.524;2022-11-15T05:33:49;61796.13;;;-143.31;100.00
47130;BME280;64709;48.096;11.524;2022-11-15T05:36:20;61796.13;;;-143.31;100.00
47130;BME280;64709;48.096;11.524;2022-11-15T05:38:48;61796.13;;;-143.31;100.00
47130;BME280;64709;48.096;11.524;2022-11-15T05:41:15;61796.13;;;-143.31;100.00
47130;BME280;64709;48.096;11.524;2022-11-15T05:43:42;61796.13;;;-143.31;100.00
47130;BME280;64709;48.096;11.524;2022-11-15T05:46:08;61796.13;;;-143.31;100.00
47130;BME280;64709;48.096;11.524;2022-11-15T05:48:35;61796.13;;;-143.31;100.00
47130;BME280;64709;48.096;11.524;2022-11-15T05:51:02;61796.13;;;-143.31;100.00
47130;BME280;64709;48.096;11.524;2022-11-15T05:53:29;61796.13;;;-143.31;100.00
47130;BME280;64709;48.096;11.524;2022-11-15T05:55:55;61796.13;;;-143.31;100.00
47130;BME280;64709;48.096;11.524;2022-11-15T05:58:20;61796.13;;;-143.31;100.00
47130;BME280;64709;48.096;11.524;2022-11-15T06:00:46;61796.13;;;-143.31;100.00
47130;BME280;64709;48.096;11.524;2022-11-15T06:03:11;61796.13;;;-143.31;100.00
47130;BME280;64709;48.096;11.524;2022-11-15T06:05:39;61796.13;;;-143.31;100.00
47130;BME280;64709;48.096;11.524;2022-11-15T06:08:04;61796.13;;;-143.31;100.00
47130;BME280;64709;48.096;11.524;2022-11-15T06:10:30;61796.13;;;-143.31;100.00
47130;BME280;64709;48.096;11.524;2022-11-15T06:12:59;61796.13;;;-143.31;100.00
47130;BME280;64709;48.096;11.524;2022-11-15T06:15:25;61796.13;;;-143.31;100.00
47130;BME280;64709;48.096;11.524;2022-11-15T06:17:51;61796.13;;;-143.31;100.00
47130;BME280;64709;48.096;11.524;2022-11-15T06:30:44;94999.09;;;21.66;46.04
47130;BME280;64709;48.096;11.524;2022-11-15T06:33:09;95013.63;;;20.58;36.94
47130;BME280;64709;48.096;11.524;2022-11-15T06:35:35;95009.09;;;19.00;36.98
47130;BME280;64709;48.096;11.524;2022-11-15T06:38:10;95011.88;;;17.81;38.01
47130;BME280;64709;48.096;11.524;2022-11-15T06:40:36;95009.22;;;17.01;39.05
47130;BME280;64709;48.096;11.524;2022-11-15T06:43:02;95012.50;;;16.35;39.90
47130;BME280;64709;48.096;11.524;2022-11-15T06:45:28;95016.06;;;15.89;40.81
47130;BME280;64709;48.096;11.524;2022-11-15T06:47:53;95014.59;;;15.64;41.13
47130;BME280;64709;48.096;11.524;2022-11-15T06:50:18;95020.31;;;15.44;42.91
47130;BME280;64709;48.096;11.524;2022-11-15T06:52:43;95014.16;;;16.03;44.62
47130;BME280;64709;48.096;11.524;2022-11-15T06:55:09;95019.25;;;16.87;45.63
47130;BME280;64709;48.096;11.524;2022-11-15T06:57:34;95012.25;;;17.66;43.75
47130;BME280;64709;48.096;11.524;2022-11-15T07:54:56;95025.25;;;5.65;69.78
47130;BME280;64709;48.096;11.524;2022-11-15T07:57:21;95018.63;;;6.02;68.28
47130;BME280;64709;48.096;11.524;2022-11-15T07:59:46;95017.34;;;6.33;66.93
47130;BME280;64709;48.096;11.524;2022-11-15T08:02:12;95010.16;;;6.62;66.26
47130;BME280;64709;48.096;11.524;2022-11-15T08:04:37;95009.78;;;6.87;64.84
47130;BME280;64709;48.096;11.524;2022-11-15T08:07:02;94997.75;;;7.01;64.80
47130;BME280;64709;48.096;11.524;2022-11-15T08:09:28;95009.28;;;7.23;63.89
47130;BME280;64709;48.096;11.524;2022-11-15T08:11:53;95002.56;;;7.37;63.47
47130;BME280;64709;48.096;11.524;2022-11-15T08:14:18;95001.66;;;7.48;63.42
47130;BME280;64709;48.096;11.524;2022-11-15T08:16:44;94989.56;;;7.57;63.13
47130;BME280;64709;48.096;11.524;2022-11-15T08:19:09;94985.09;;;7.63;62.87
47130;BME280;64709;48.096;11.524;2022-11-15T08:21:34;94983.38;;;7.74;62.68
47130;BME280;64709;48.096;11.524;2022-11-15T08:24:00;94976.50;;;7.78;62.90
47130;BME280;64709;48.096;11.524;2022-11-15T08:26:26;94978.69;;;7.81;62.86
47130;BME280;64709;48.096;11.524;2022-11-15T08:28:54;94972.38;;;7.87;63.12
47130;BME280;64709;48.096;11.524;2022-11-15T08:31:19;94977.75;;;7.92;62.71
47130;BME280;64709;48.096;11.524;2022-11-15T08:33:44;94982.31;;;7.96;62.71
47130;BME280;64709;48.096;11.524;2022-11-15T08:36:15;94979.47;;;8.03;62.57
47130;BME280;64709;48.096;11.524;2022-11-15T08:38:41;94971.53;;;8.08;62.36
47130;BME280;64709;48.096;11.524;2022-11-15T08:41:06;94965.22;;;8.14;62.58
47130;BME280;64709;48.096;11.524;2022-11-15T08:43:32;94972.22;;;8.20;62.20
47130;BME280;64709;48.096;11.524;2022-11-15T08:45:58;94973.31;;;8.24;62.41
47130;BME280;64709;48.096;11.524;2022-11-15T08:48:23;94975.22;;;8.29;62.61
47130;BME280;64709;48.096;11.524;2022-11-15T08:50:49;94971.28;;;8.31;62.36
47130;BME280;64709;48.096;11.524;2022-11-15T08:53:14;94976.16;;;8.40;62.65
47130;BME280;64709;48.096;11.524;2022-11-15T08:55:40;94969.78;;;8.41;62.25
47130;BME280;64709;48.096;11.524;2022-11-15T08:58:06;94967.22;;;8.51;62.71
47130;BME280;64709;48.096;11.524;2022-11-15T09:00:32;94971.03;;;8.60;62.44
47130;BME280;64709;48.096;11.524;2022-11-15T09:02:57;94969.25;;;8.70;62.66
47130;BME280;64709;48.096;11.524;2022-11-15T09:05:23;94957.34;;;8.83;62.30
47130;BME280;64709;48.096;11.524;2022-11-15T09:07:53;94967.34;;;9.40;61.73
47130;BME280;64709;48.096;11.524;2022-11-15T09:10:18;94950.97;;;11.22;58.80
47130;BME280;64709;48.096;11.524;2022-11-15T09:12:44;94955.88;;;13.26;55.28
47130;BME280;64709;48.096;11.524;2022-11-15T09:15:10;94950.34;;;14.55;51.80
47130;BME280;64709;48.096;11.524;2022-11-15T09:17:35;94937.97;;;15.24;50.12
47130;BME280;64709;48.096;11.524;2022-11-15T09:20:00;94936.50;;;15.32;49.28
47130;BME280;64709;48.096;11.524;2022-11-15T09:22:26;94924.78;;;15.41;49.16
47130;BME280;64709;48.096;11.524;2022-11-15T09:24:51;94925.84;;;16.00;46.84
47130;BME280;64709;48.096;11.524;2022-11-15T09:27:16;94920.16;;;15.28;47.42
47130;BME280;64709;48.096;11.524;2022-11-15T09:29:41;94920.28;;;14.53;48.73
47130;BME280;64709;48.096;11.524;2022-11-15T09:32:07;94916.34;;;14.03;47.62
47130;BME280;64709;48.096;11.524;2022-11-15T09:34:32;94913.22;;;13.96;49.06
47130;BME280;64709;48.096;11.524;2022-11-15T09:36:58;94909.25;;;14.12;49.79
47130;BME280;64709;48.096;11.524;2022-11-15T09:39:23;94913.47;;;14.37;49.32
47130;BME280;64709;48.096;11.524;2022-11-15T09:42:07;94914.59;;;14.55;48.88
47130;BME280;64709;48.096;11.524;2022-11-15T09:44:55;94906.97;;;14.81;48.08
47130;BME280;64709;48.096;11.524;2022-11-15T09:50:11;94908.53;;;14.07;49.17
47130;BME280;64709;48.096;11.524;2022-11-15T09:52:39;94899.22;;;13.99;49.85
47130;BME280;64709;48.096;11.524;2022-11-15T09:55:09;94889.56;;;13.98;49.65
47130;BME280;64709;48.096;11.524;2022-11-15T09:57:38;94884.03;;;14.08;49.76
47130;BME280;64709;48.096;11.524;2022-11-15T10:05:16;94890.97;;;13.72;50.12
47130;BME280;64709;48.096;11.524;2022-11-15T10:07:55;94890.81;;;14.06;50.13
47130;BME280;64709;48.096;11.524;2022-11-15T10:10:29;94878.69;;;14.27;49.50
47130;BME280;64709;48.096;11.524;2022-11-15T10:12:57;94860.00;;;13.98;48.88
47130;BME280;64709;48.096;11.524;2022-11-15T10:15:24;94868.50;;;13.86;49.34
47130;BME280;64709;48.096;11.524;2022-11-15T10:20:29;94861.03;;;14.02;50.17
47130;BME280;64709;48.096;11.524;2022-11-15T10:23:02;94870.03;;;14.30;49.46
47130;BME280;64709;48.096;11.524;2022-11-15T10:25:34;94855.94;;;14.57;48.66
47130;BME280;64709;48.096;11.524;2022-11-15T10:30:43;94852.94;;;15.37;47.80
47130;BME280;64709;48.096;11.524;2022-11-15T10:33:13;94842.91;;;15.70;47.46
47130;BME280;64709;48.096;11.524;2022-11-15T10:35:42;94822.25;;;16.29;46.50
47130;BME280;64709;48.096;11.524;2022-11-15T10:38:09;94830.63;;;16.85;45.30
47130;BME280;64709;48.096;11.524;2022-11-15T10:40:36;94821.31;;;17.22;44.81
47130;BME280;64709;48.096;11.524;2022-11-15T10:43:14;94813.97;;;17.54;43.77
47130;BME280;64709;48.096;11.524;2022-11-15T10:45:40;94809.16;;;17.99;42.96
47130;BME280;64709;48.096;11.524;2022-11-15T10:50:37;94808.78;;;18.57;42.21
47130;BME280;64709;48.096;11.524;2022-11-15T10:53:03;94811.44;;;18.74;41.34
47130;BME280;64709;48.096;11.524;2022-11-15T10:55:30;94811.09;;;19.02;40.82
47130;BME280;64709;48.096;11.524;2022-11-15T10:58:18;94799.41;;;19.18;40.12
47130;BME280;64709;48.096;11.524;2022-11-15T11:00:45;94794.75;;;19.27;40.58
47130;BME280;64709;48.096;11.524;2022-11-15T11:03:37;94795.25;;;19.67;39.58
47130;BME280;64709;48.096;11.524;2022-11-15T11:06:17;94780.31;;;20.11;38.73
47130;BME280;64709;48.096;11.524;2022-11-15T11:09:04;94772.84;;;20.50;38.64
47130;BME280;64709;48.096;11.524;2022-11-15T11:11:51;94770.66;;;20.97;38.22
47130;BME280;64709;48.096;11.524;2022-11-15T11:14:23;94767.72;;;21.47;38.08
47130;BME280;64709;48.096;11.524;2022-11-15T11:16:54;94768.56;;;22.24;36.83
47130;BME280;64709;48.096;11.524;2022-11-15T11:30:52;94741.50;;;24.63;30.35
47130;BME280;64709;48.096;11.524;2022-11-15T11:33:26;94735.69;;;24.65;28.81
47130;BME280;64709;48.096;11.524;2022-11-15T11:36:06;94734.72;;;24.03;30.32
47130;BME280;64709;48.096;11.524;2022-11-15T11:38:42;94735.50;;;23.53;30.68
47130;BME280;64709;48.096;11.524;2022-11-15T11:44:32;94718.59;;;22.44;31.81
47130;BME280;64709;48.096;11.524;2022-11-15T11:49:38;94728.25;;;20.72;34.06
47130;BME280;64709;48.096;11.524;2022-11-15T11:52:17;94723.09;;;20.04;34.91
47130;BME280;64709;48.096;11.524;2022-11-15T12:00:19;94724.03;;;18.74;37.51
47130;BME280;64709;48.096;11.524;2022-11-15T12:03:01;94718.97;;;18.46;38.04
47130;BME280;64709;48.096;11.524;2022-11-15T12:05:40;94708.03;;;18.17;38.61
47130;BME280;64709;48.096;11.524;2022-11-15T12:08:29;94700.25;;;17.90;39.24
47130;BME280;64709;48.096;11.524;2022-11-15T12:11:20;94699.59;;;17.67;39.38
47130;BME280;64709;48.096;11.524;2022-11-15T12:13:50;94697.31;;;17.43;39.65
47130;BME280;64709;48.096;11.524;2022-11-15T12:16:32;94699.94;;;17.26;40.21
47130;BME280;64709;48.096;11.524;2022-11-15T12:19:03;94700.25;;;17.16;40.77
47130;BME280;64709;48.096;11.524;2022-11-15T12:21:38;94697.97;;;17.00;41.11
47130;BME280;64709;48.096;11.524;2022-11-15T12:24:18;94701.56;;;16.87;40.82
47130;BME280;64709;48.096;11.524;2022-11-15T12:29:44;94698.91;;;16.65;42.25
47130;BME280;64709;48.096;11.524;2022-11-15T12:32:34;94689.28;;;16.50;41.72
47130;BME280;64709;48.096;11.524;2022-11-15T12:35:06;94689.56;;;16.40;42.41
47130;BME280;64709;48.096;11.524;2022-11-15T12:37:48;94687.31;;;16.34;42.59
47130;BME280;64709;48.096;11.524;2022-11-15T12:43:02;94685.47;;;16.20;42.75
47130;BME280;64709;48.096;11.524;2022-11-15T12:53:26;94677.09;;;16.00;44.24
47130;BME280;64709;48.096;11.524;2022-11-15T12:58:56;94669.22;;;15.90;43.83
47130;BME280;64709;48.096;11.524;2022-11-15T13:04:13;94668.81;;;15.74;44.27
47130;BME280;64709;48.096;11.524;2022-11-15T13:12:09;94649.50;;;15.58;45.07
47130;BME280;64709;48.096;11.524;2022-11-15T13:14:52;94655.28;;;15.52;45.05
47130;BME280;64709;48.096;11.524;2022-11-15T13:17:35;94646.81;;;15.44;45.58
47130;BME280;64709;48.096;11.524;2022-11-15T13:22:27;94649.38;;;15.27;45.92
47130;BME280;64709;48.096;11.524;2022-11-15T13:35:42;94649.41;;;15.00;46.01
47130;BME280;64709;48.096;11.524;2022-11-15T13:38:29;94645.13;;;14.99;46.42
47130;BME280;64709;48.096;11.524;2022-11-15T13:40:56;94644.22;;;14.90;46.18
47130;BME280;64709;48.096;11.524;2022-11-15T13:48:30;94642.84;;;14.79;46.92
47130;BME280;64709;48.096;11.524;2022-11-15T13:50:57;94641.66;;;14.71;46.67
47130;BME280;64709;48.096;11.524;2022-11-15T13:53:23;94647.63;;;14.68;46.45
47130;BME280;64709;48.096;11.524;2022-11-15T13:55:49;94644.53;;;14.61;46.87
47130;BME280;64709;48.096;11.524;2022-11-15T13:58:16;94650.00;;;14.56;46.82
47130;BME280;64709;48.096;11.524;2022-11-15T14:00:43;94655.78;;;14.49;47.22
47130;BME280;64709;48.096;11.524;2022-11-15T14:06:03;94655.44;;;14.37;47.56
47130;BME280;64709;48.096;11.524;2022-11-15T14:08:29;94662.19;;;14.35;47.91
47130;BME280;64709;48.096;11.524;2022-11-15T14:11:19;94657.13;;;14.33;47.85
47130;BME280;64709;48.096;11.524;2022-11-15T14:19:05;94665.88;;;14.25;48.22
47130;BME280;64709;48.096;11.524;2022-11-15T14:21:31;94659.50;;;14.21;48.62
47130;BME280;64709;48.096;11.524;2022-11-15T14:24:19;94655.00;;;14.16;48.72
47130;BME280;64709;48.096;11.524;2022-11-15T14:26:47;94660.66;;;14.15;48.70
47130;BME280;64709;48.096;11.524;2022-11-15T14:29:27;94662.06;;;14.12;48.91
47130;BME280;64709;48.096;11.524;2022-11-15T14:31:53;94650.66;;;14.02;49.07
47130;BME280;64709;48.096;11.524;2022-11-15T14:34:19;94665.94;;;14.06;49.08
47130;BME280;64709;48.096;11.524;2022-11-15T14:36:47;94669.28;;;13.98;49.11
47130;BME280;64709;48.096;11.524;2022-11-15T14:39:12;94660.19;;;13.94;49.24
47130;BME280;64709;48.096;11.524;2022-11-15T14:41:38;94656.88;;;13.83;49.58
47130;BME280;64709;48.096;11.524;2022-11-15T14:44:04;94652.88;;;13.81;49.36
47130;BME280;64709;48.096;11.524;2022-11-15T14:46:30;94655.66;;;13.76;49.52
47130;BME280;64709;48.096;11.524;2022-11-15T14:48:55;94661.31;;;13.74;49.53
47130;BME280;64709;48.096;11.524;2022-11-15T14:51:20;94641.97;;;13.59;49.63
47130;BME280;64709;48.096;11.524;2022-11-15T14:53:46;94658.00;;;13.64;49.77
47130;BME280;64709;48.096;11.524;2022-11-15T14:56:12;94655.50;;;13.54;49.45
47130;BME280;64709;48.096;11.524;2022-11-15T14:58:38;94650.97;;;13.49;49.63
47130;BME280;64709;48.096;11.524;2022-11-15T15:01:32;94650.16;;;13.48;49.56
47130;BME280;64709;48.096;11.524;2022-11-15T15:03:58;94636.91;;;13.38;49.76
47130;BME280;64709;48.096;11.524;2022-11-15T15:06:24;94643.66;;;13.36;49.61
47130;BME280;64709;48.096;11.524;2022-11-15T15:08:49;94641.63;;;13.28;49.95
47130;BME280;64709;48.096;11.524;2022-11-15T15:11:28;94640.63;;;13.24;50.00
47130;BME280;64709;48.096;11.524;2022-11-15T15:13:55;94646.34;;;13.17;50.11
47130;BME280;64709;48.096;11.524;2022-11-15T15:16:25;94646.66;;;13.10;50.43
47130;BME280;64709;48.096;11.524;2022-11-15T15:18:51;94634.50;;;12.99;51.02
47130;BME280;64709;48.096;11.524;2022-11-15T15:21:26;94638.75;;;13.00;51.30
47130;BME280;64709;48.096;11.524;2022-11-15T15:23:53;94641.78;;;12.94;51.52
47130;BME280;64709;48.096;11.524;2022-11-15T15:26:22;94634.88;;;12.88;52.23
47130;BME280;64709;48.096;11.524;2022-11-15T15:29:00;94638.44;;;12.83;52.23
47130;BME280;64709;48.096;11.524;2022-11-15T15:31:25;94648.44;;;12.78;52.53
47130;BME280;64709;48.096;11.524;2022-11-15T15:33:50;94645.81;;;12.73;52.79
47130;BME280;64709;48.096;11.524;2022-11-15T15:36:18;94651.75;;;12.69;53.72
47130;BME280;64709;48.096;11.524;2022-11-15T15:38:43;94656.38;;;12.64;53.89
47130;BME280;64709;48.096;11.524;2022-11-15T15:41:13;94671.94;;;12.62;54.62
47130;BME280;64709;48.096;11.524;2022-11-15T15:43:39;94652.44;;;12.56;55.06
47130;BME280;64709;48.096;11.524;2022-11-15T15:46:11;94651.69;;;12.51;55.61
47130;BME280;64709;48.096;11.524;2022-11-15T15:48:37;94654.38;;;12.51;56.26
47130;BME280;64709;48.096;11.524;2022-11-15T15:51:05;94649.34;;;12.44;56.20
47130;BME280;64709;48.096;11.524;2022-11-15T15:53:30;94650.16;;;12.45;56.77